Terminal Aerodrome Forecast
Issued by NWS Brownsville, TX

Home | Current Version | Previous Version | Text Only | Print | Product List | Glossary On
Versions: 1 2 3 4 5 6 7 8 9 10 11 12 13 14 15 16 17 18 19 20 21 22 23
000
FTUS44 KBRO 080538
TAFHRL
TAF
KHRL 080538Z 0806/0906 36008KT 5SM -RA BR OVC012
     FM081200 34018G22KT 5SM -DZ BR OVC010
     FM081800 35024G30KT 5SM -DZ BR OVC007=

USA.gov is the U.S. government's official web portal to all federal, state and local government web resources and services.